45.8°F
Current conditions from King Hill
Updated every 5 minutes
 
  Tuesday September 23, 2014

Station Historical Data
Daily Summary for February 27, 2011 Units:  English    Metric   Both
« Previous Day
Next Day »
Daily Weekly Monthly Yearly Custom
  High: Low: Average:
Temperature: 29.5 °F 13.4 °F 22.1 °F
Dew Point: 22.2 °F 8.5 °F 15.8 °F
Humidity: 85% 64% 77%
Wind Speed: 7.0mph 0.0mph 2.3mph
Wind Gust: 14.0mph - -
Wind- - South
Pressure: 30.03 in 29.95 in -
Precipitation: 0.00 in    
Historical Graphs
 
 
Tabular Data for February 27, 2011
Time Temperature Dew Point Pressure Wind Wind Speed Wind Gust Humidity Daily Rainfall
00:04 14.2 °F 8.6 °F 30.03 in Calm     78% 0.00 in
00:09 14.1 °F 8.8 °F 30.03 in Calm   3.0 mph 79% 0.00 in
00:14 14.1 °F 8.8 °F 30.02 in Calm   3.0 mph 79% 0.00 in
00:19 14.0 °F 8.7 °F 30.02 in Calm   2.0 mph 79% 0.00 in
00:24 14.0 °F 8.7 °F 30.02 in Calm   3.0 mph 79% 0.00 in
00:29 13.9 °F 8.9 °F 30.02 in NE 1.0 mph 4.0 mph 80% 0.00 in
00:34 13.8 °F 8.8 °F 30.02 in Calm   4.0 mph 80% 0.00 in
00:39 13.7 °F 8.7 °F 30.02 in Calm   3.0 mph 80% 0.00 in
00:44 13.5 °F 8.5 °F 30.01 in Calm   3.0 mph 80% 0.00 in
00:49 13.4 °F 8.7 °F 30.01 in Calm   2.0 mph 81% 0.00 in
00:54 13.4 °F 8.7 °F 30.01 in Calm   4.0 mph 81% 0.00 in
00:59 13.5 °F 9.0 °F 30.01 in Calm   4.0 mph 82% 0.00 in
01:04 13.6 °F 9.1 °F 30.01 in Calm   2.0 mph 82% 0.00 in
01:09 13.7 °F 9.5 °F 30.00 in NE 1.0 mph 4.0 mph 83% 0.00 in
01:14 13.9 °F 9.7 °F 30.00 in NE 2.0 mph 5.0 mph 83% 0.00 in
01:19 14.1 °F 9.9 °F 30.00 in NE 1.0 mph 6.0 mph 83% 0.00 in
01:24 14.2 °F 10.0 °F 30.00 in NE 1.0 mph 6.0 mph 83% 0.00 in
01:30 14.3 °F 10.1 °F 30.00 in Calm   4.0 mph 83% 0.00 in
01:39 14.3 °F 10.1 °F 30.00 in NNE 1.0 mph 3.0 mph 83% 0.00 in
01:44 14.3 °F 10.1 °F 30.00 in Calm   4.0 mph 83% 0.00 in
01:49 14.3 °F 10.1 °F 29.99 in NNE 1.0 mph 4.0 mph 83% 0.00 in
01:54 14.3 °F 10.1 °F 29.99 in NNE 1.0 mph 4.0 mph 83% 0.00 in
02:04 14.3 °F 10.1 °F 29.99 in Calm   4.0 mph 83% 0.00 in
02:09 14.3 °F 10.1 °F 30.00 in Calm   4.0 mph 83% 0.00 in
02:14 14.3 °F 10.1 °F 29.99 in Calm   4.0 mph 83% 0.00 in
02:19 14.4 °F 10.2 °F 29.99 in Calm   3.0 mph 83% 0.00 in
02:24 14.5 °F 10.3 °F 29.99 in Calm   5.0 mph 83% 0.00 in
02:29 14.5 °F 10.6 °F 29.98 in Calm   5.0 mph 84% 0.00 in
02:34 14.5 °F 10.6 °F 29.98 in NNE 1.0 mph 3.0 mph 84% 0.00 in
02:39 14.6 °F 10.6 °F 29.98 in NNE 1.0 mph 3.0 mph 84% 0.00 in
02:44 14.6 °F 10.6 °F 29.98 in Calm   3.0 mph 84% 0.00 in
02:49 14.6 °F 10.6 °F 29.97 in Calm   3.0 mph 84% 0.00 in
02:54 14.7 °F 10.7 °F 29.97 in NNE 1.0 mph 3.0 mph 84% 0.00 in
02:59 14.7 °F 10.7 °F 29.97 in NNE 1.0 mph 3.0 mph 84% 0.00 in
03:04 14.8 °F 10.8 °F 29.97 in Calm   3.0 mph 84% 0.00 in
03:09 14.9 °F 10.9 °F 29.97 in Calm   3.0 mph 84% 0.00 in
03:14 14.9 °F 10.9 °F 29.96 in Calm   3.0 mph 84% 0.00 in
03:19 15.0 °F 11.0 °F 29.96 in Calm   2.0 mph 84% 0.00 in
03:24 15.0 °F 11.0 °F 29.96 in NNE 1.0 mph 3.0 mph 84% 0.00 in
03:29 15.1 °F 11.1 °F 29.95 in NNE 2.0 mph 3.0 mph 84% 0.00 in
03:34 15.1 °F 11.1 °F 29.95 in Calm   4.0 mph 84% 0.00 in
03:39 15.2 °F 11.2 °F 29.95 in Calm   4.0 mph 84% 0.00 in
03:44 15.2 °F 11.2 °F 29.95 in Calm   3.0 mph 84% 0.00 in
03:49 15.2 °F 11.2 °F 29.95 in Calm   3.0 mph 84% 0.00 in
03:54 15.2 °F 11.2 °F 29.95 in NNE 1.0 mph 3.0 mph 84% 0.00 in
03:59 15.3 °F 11.6 °F 29.95 in Calm   3.0 mph 85% 0.00 in
04:04 15.3 °F 11.6 °F 29.95 in Calm   3.0 mph 85% 0.00 in
04:09 15.3 °F 11.6 °F 29.95 in Calm   2.0 mph 85% 0.00 in
04:14 15.4 °F 11.7 °F 29.95 in Calm   2.0 mph 85% 0.00 in
04:19 15.4 °F 11.7 °F 29.95 in Calm     85% 0.00 in
04:24 15.5 °F 11.8 °F 29.95 in Calm   3.0 mph 85% 0.00 in
04:29 15.6 °F 11.9 °F 29.95 in Calm   3.0 mph 85% 0.00 in
04:34 15.6 °F 11.9 °F 29.95 in Calm   3.0 mph 85% 0.00 in
04:39 15.7 °F 12.0 °F 29.95 in Calm   1.0 mph 85% 0.00 in
04:44 15.7 °F 12.0 °F 29.95 in Calm     85% 0.00 in
04:49 15.7 °F 12.0 °F 29.95 in Calm   2.0 mph 85% 0.00 in
04:54 15.7 °F 12.0 °F 29.95 in Calm   2.0 mph 85% 0.00 in
04:59 15.7 °F 12.0 °F 29.95 in Calm   1.0 mph 85% 0.00 in
05:04 15.7 °F 12.0 °F 29.95 in Calm   1.0 mph 85% 0.00 in
05:09 15.7 °F 12.0 °F 29.95 in Calm     85% 0.00 in
05:14 15.7 °F 12.0 °F 29.95 in Calm   2.0 mph 85% 0.00 in
05:19 15.7 °F 12.0 °F 29.95 in Calm   2.0 mph 85% 0.00 in
05:24 15.7 °F 12.0 °F 29.95 in Calm   2.0 mph 85% 0.00 in
05:29 15.7 °F 12.0 °F 29.95 in Calm   1.0 mph 85% 0.00 in
05:34 15.7 °F 12.0 °F 29.95 in Calm     85% 0.00 in
05:39 15.7 °F 12.0 °F 29.95 in Calm   2.0 mph 85% 0.00 in
05:44 15.7 °F 12.0 °F 29.95 in Calm   3.0 mph 85% 0.00 in
05:49 15.7 °F 12.0 °F 29.95 in NNE 1.0 mph 3.0 mph 85% 0.00 in
05:54 15.7 °F 12.0 °F 29.95 in NNE 1.0 mph 3.0 mph 85% 0.00 in
05:59 15.7 °F 12.0 °F 29.95 in Calm   2.0 mph 85% 0.00 in
06:04 15.7 °F 12.0 °F 29.95 in Calm   2.0 mph 85% 0.00 in
06:09 15.7 °F 12.0 °F 29.95 in Calm   3.0 mph 85% 0.00 in
06:14 15.7 °F 12.0 °F 29.95 in Calm   3.0 mph 85% 0.00 in
06:19 15.7 °F 12.0 °F 29.95 in Calm   2.0 mph 85% 0.00 in
06:24 15.8 °F 12.1 °F 29.95 in Calm   4.0 mph 85% 0.00 in
06:29 15.8 °F 12.1 °F 29.95 in Calm   4.0 mph 85% 0.00 in
06:34 15.8 °F 12.1 °F 29.95 in Calm   2.0 mph 85% 0.00 in
06:39 15.8 °F 12.1 °F 29.96 in Calm   2.0 mph 85% 0.00 in
06:44 15.8 °F 12.1 °F 29.96 in Calm   2.0 mph 85% 0.00 in
06:49 15.8 °F 12.1 °F 29.96 in Calm   2.0 mph 85% 0.00 in
06:54 15.9 °F 12.2 °F 29.96 in Calm   2.0 mph 85% 0.00 in
06:59 15.8 °F 11.8 °F 29.96 in Calm   2.0 mph 84% 0.00 in
07:04 15.8 °F 11.8 °F 29.96 in Calm   2.0 mph 84% 0.00 in
07:09 15.7 °F 11.7 °F 29.96 in Calm   2.0 mph 84% 0.00 in
07:14 15.7 °F 11.7 °F 29.97 in Calm   2.0 mph 84% 0.00 in
07:24 15.9 °F 11.9 °F 29.97 in Calm   2.0 mph 84% 0.00 in
07:29 16.0 °F 12.0 °F 29.97 in Calm   2.0 mph 84% 0.00 in
07:34 16.2 °F 12.2 °F 29.97 in Calm   1.0 mph 84% 0.00 in
07:39 16.3 °F 12.3 °F 29.97 in Calm   2.0 mph 84% 0.00 in
07:44 16.5 °F 12.5 °F 29.97 in Calm   2.0 mph 84% 0.00 in
07:49 16.7 °F 12.7 °F 29.97 in Calm   2.0 mph 84% 0.00 in
07:54 16.9 °F 12.6 °F 29.98 in Calm   2.0 mph 83% 0.00 in
07:59 17.0 °F 12.7 °F 29.98 in Calm   2.0 mph 83% 0.00 in
08:04 17.2 °F 12.9 °F 29.98 in Calm   2.0 mph 83% 0.00 in
08:09 17.4 °F 12.8 °F 29.98 in NNE 1.0 mph 2.0 mph 82% 0.00 in
08:14 17.5 °F 12.9 °F 29.98 in Calm   2.0 mph 82% 0.00 in
08:19 17.6 °F 12.8 °F 29.98 in ENE 3.0 mph 6.0 mph 81% 0.00 in
08:24 17.8 °F 13.0 °F 29.98 in NE 1.0 mph 6.0 mph 81% 0.00 in
08:29 17.9 °F 13.1 °F 29.98 in ENE 2.0 mph 6.0 mph 81% 0.00 in
08:39 18.2 °F 13.1 °F 29.98 in East 2.0 mph 5.0 mph 80% 0.00 in
08:44 18.4 °F 13.3 °F 29.98 in East 1.0 mph 5.0 mph 80% 0.00 in
08:49 18.6 °F 13.5 °F 29.98 in Calm   5.0 mph 80% 0.00 in
08:54 19.0 °F 13.9 °F 29.99 in ENE 1.0 mph 3.0 mph 80% 0.00 in
08:59 19.2 °F 14.0 °F 29.98 in Calm   3.0 mph 80% 0.00 in
09:04 19.7 °F 14.2 °F 29.98 in Calm     79% 0.00 in
09:09 19.7 °F 14.2 °F 29.99 in Calm   1.0 mph 79% 0.00 in
09:14 20.3 °F 14.5 °F 29.99 in Calm   1.0 mph 78% 0.00 in
09:19 21.0 °F 14.9 °F 29.99 in Calm   2.0 mph 77% 0.00 in
09:24 21.6 °F 15.2 °F 29.99 in Calm   2.0 mph 76% 0.00 in
09:29 21.8 °F 15.4 °F 29.99 in Calm   2.0 mph 76% 0.00 in
09:34 22.5 °F 15.5 °F 29.99 in Calm   2.0 mph 74% 0.00 in
09:39 22.5 °F 15.2 °F 29.99 in Calm   2.0 mph 73% 0.00 in
09:44 22.2 °F 15.2 °F 29.99 in Calm   2.0 mph 74% 0.00 in
09:49 22.4 °F 15.4 °F 29.99 in Calm     74% 0.00 in
09:54 23.0 °F 15.6 °F 29.99 in Calm   2.0 mph 73% 0.00 in
10:04 23.4 °F 15.7 °F 30.00 in ENE 1.0 mph 3.0 mph 72% 0.00 in
10:09 23.2 °F 15.5 °F 30.00 in ENE 1.0 mph 3.0 mph 72% 0.00 in
10:14 23.2 °F 15.8 °F 30.00 in Calm   3.0 mph 73% 0.00 in
10:19 23.4 °F 15.7 °F 30.00 in Calm   2.0 mph 72% 0.00 in
10:24 23.8 °F 16.1 °F 30.00 in Calm   2.0 mph 72% 0.00 in
10:29 23.9 °F 16.2 °F 30.00 in Calm   3.0 mph 72% 0.00 in
10:34 23.7 °F 15.7 °F 30.00 in NE 1.0 mph 3.0 mph 71% 0.00 in
10:39 23.6 °F 15.9 °F 30.00 in NW 1.0 mph 4.0 mph 72% 0.00 in
10:44 23.9 °F 16.2 °F 30.00 in NNW 2.0 mph 4.0 mph 72% 0.00 in
10:49 23.9 °F 16.2 °F 30.00 in NW 1.0 mph 4.0 mph 72% 0.00 in
10:54 23.7 °F 16.3 °F 30.00 in NW 2.0 mph 5.0 mph 73% 0.00 in
10:59 23.7 °F 16.6 °F 30.01 in WNW 1.0 mph 5.0 mph 74% 0.00 in
11:04 23.4 °F 16.0 °F 30.01 in WNW 1.0 mph 5.0 mph 73% 0.00 in
11:09 23.1 °F 16.0 °F 30.01 in Calm   5.0 mph 74% 0.00 in
11:14 23.3 °F 16.2 °F 30.01 in WNW 1.0 mph 5.0 mph 74% 0.00 in
11:19 23.6 °F 16.5 °F 30.01 in Calm   3.0 mph 74% 0.00 in
11:24 24.0 °F 16.6 °F 30.01 in Calm   2.0 mph 73% 0.00 in
11:29 24.2 °F 16.8 °F 30.01 in Calm   1.0 mph 73% 0.00 in
11:34 24.2 °F 16.8 °F 30.01 in Calm   3.0 mph 73% 0.00 in
11:39 24.9 °F 17.2 °F 30.01 in WNW 1.0 mph 3.0 mph 72% 0.00 in
11:44 25.1 °F 17.0 °F 30.01 in Calm   2.0 mph 71% 0.00 in
11:49 25.4 °F 17.3 °F 30.01 in Calm   1.0 mph 71% 0.00 in
11:55 25.4 °F 17.0 °F 30.01 in Calm   2.0 mph 70% 0.00 in
11:59 25.7 °F 17.6 °F 30.01 in Calm   2.0 mph 71% 0.00 in
12:04 26.0 °F 17.9 °F 30.01 in Calm   1.0 mph 71% 0.00 in
12:09 26.5 °F 18.0 °F 30.01 in WNW 1.0 mph 2.0 mph 70% 0.00 in
12:14 26.5 °F 17.7 °F 30.01 in WNW 1.0 mph 3.0 mph 69% 0.00 in
12:19 26.3 °F 17.5 °F 30.01 in Calm   3.0 mph 69% 0.00 in
12:24 26.4 °F 17.9 °F 30.00 in Calm   2.0 mph 70% 0.00 in
12:29 26.9 °F 18.4 °F 30.00 in Calm   2.0 mph 70% 0.00 in
12:34 27.8 °F 19.0 °F 30.00 in Calm   1.0 mph 69% 0.00 in
12:39 28.0 °F 18.1 °F 30.00 in WNW 1.0 mph 4.0 mph 66% 0.00 in
12:44 27.6 °F 17.7 °F 29.99 in SW 3.0 mph 5.0 mph 66% 0.00 in
12:49 27.3 °F 18.1 °F 29.99 in SW 1.0 mph 5.0 mph 68% 0.00 in
12:54 27.2 °F 17.3 °F 29.99 in SW 4.0 mph 5.0 mph 66% 0.00 in
12:59 26.9 °F 17.8 °F 29.99 in SW 2.0 mph 6.0 mph 68% 0.00 in
13:04 27.3 °F 18.1 °F 29.99 in Calm   6.0 mph 68% 0.00 in
13:09 27.2 °F 17.7 °F 29.99 in SW 3.0 mph 5.0 mph 67% 0.00 in
13:14 27.6 °F 18.1 °F 30.00 in SW 2.0 mph 5.0 mph 67% 0.00 in
13:19 27.8 °F 18.3 °F 30.00 in SW 2.0 mph 5.0 mph 67% 0.00 in
13:24 27.8 °F 17.9 °F 30.00 in WSW 3.0 mph 5.0 mph 66% 0.00 in
13:29 27.9 °F 18.0 °F 30.00 in Calm   5.0 mph 66% 0.00 in
13:34 28.1 °F 18.2 °F 30.00 in Calm   4.0 mph 66% 0.00 in
13:44 29.1 °F 19.2 °F 29.99 in SW 1.0 mph 6.0 mph 66% 0.00 in
13:49 29.4 °F 19.1 °F 29.99 in Calm   4.0 mph 65% 0.00 in
13:54 29.3 °F 18.6 °F 29.99 in SW 1.0 mph 3.0 mph 64% 0.00 in
13:59 29.0 °F 18.7 °F 29.99 in Calm   2.0 mph 65% 0.00 in
14:04 28.8 °F 18.5 °F 29.99 in SW 1.0 mph 2.0 mph 65% 0.00 in
14:09 28.7 °F 18.4 °F 29.99 in SW 2.0 mph 4.0 mph 65% 0.00 in
14:14 28.7 °F 18.8 °F 29.99 in Calm   4.0 mph 66% 0.00 in
14:19 28.8 °F 18.9 °F 29.99 in SW 1.0 mph 4.0 mph 66% 0.00 in
14:24 29.0 °F 19.1 °F 29.99 in Calm   4.0 mph 66% 0.00 in
14:29 28.7 °F 18.8 °F 29.99 in SW 1.0 mph 5.0 mph 66% 0.00 in
14:34 28.5 °F 18.9 °F 30.00 in SSW 2.0 mph 5.0 mph 67% 0.00 in
14:44 28.3 °F 18.7 °F 30.00 in South 1.0 mph 5.0 mph 67% 0.00 in
14:49 28.3 °F 18.7 °F 29.99 in SSW 2.0 mph 5.0 mph 67% 0.00 in
14:54 28.0 °F 18.5 °F 30.00 in SSW 1.0 mph 5.0 mph 67% 0.00 in
14:59 27.9 °F 18.7 °F 30.00 in SSW 2.0 mph 5.0 mph 68% 0.00 in
15:04 27.9 °F 18.7 °F 30.00 in SSW 2.0 mph 6.0 mph 68% 0.00 in
15:09 27.9 °F 19.1 °F 30.00 in SSW 3.0 mph 6.0 mph 69% 0.00 in
15:14 28.0 °F 18.8 °F 30.00 in SSW 2.0 mph 6.0 mph 68% 0.00 in
15:19 27.9 °F 18.7 °F 30.00 in SSW 5.0 mph 7.0 mph 68% 0.00 in
15:24 27.8 °F 19.0 °F 30.00 in SSW 3.0 mph 7.0 mph 69% 0.00 in
15:29 28.0 °F 19.1 °F 30.00 in SW 2.0 mph 7.0 mph 69% 0.00 in
15:34 27.9 °F 19.1 °F 30.00 in SSW 3.0 mph 7.0 mph 69% 0.00 in
15:39 27.8 °F 19.0 °F 30.00 in SSW 2.0 mph 7.0 mph 69% 0.00 in
15:44 27.9 °F 19.1 °F 30.00 in SSW 4.0 mph 7.0 mph 69% 0.00 in
15:49 27.8 °F 19.3 °F 30.00 in SW 3.0 mph 7.0 mph 70% 0.00 in
15:54 27.7 °F 19.2 °F 30.00 in SW 2.0 mph 7.0 mph 70% 0.00 in
15:59 27.6 °F 19.1 °F 30.01 in SW 4.0 mph 7.0 mph 70% 0.00 in
16:04 27.5 °F 19.3 °F 30.01 in SW 4.0 mph 7.0 mph 71% 0.00 in
16:09 27.5 °F 19.3 °F 30.00 in SSW 3.0 mph 7.0 mph 71% 0.00 in
16:14 27.8 °F 19.3 °F 30.00 in SSW 2.0 mph 7.0 mph 70% 0.00 in
16:19 28.6 °F 19.7 °F 30.00 in South 1.0 mph 6.0 mph 69% 0.00 in
16:24 28.9 °F 19.7 °F 30.00 in SSW 3.0 mph 7.0 mph 68% 0.00 in
16:29 28.9 °F 19.7 °F 30.00 in SSW 1.0 mph 7.0 mph 68% 0.00 in
16:34 29.0 °F 19.8 °F 30.00 in SSW 3.0 mph 7.0 mph 68% 0.00 in
16:39 28.7 °F 19.5 °F 30.00 in SW 3.0 mph 8.0 mph 68% 0.00 in
16:44 28.5 °F 19.3 °F 30.00 in SW 4.0 mph 8.0 mph 68% 0.00 in
16:49 28.1 °F 19.2 °F 30.00 in SW 2.0 mph 7.0 mph 69% 0.00 in
16:54 28.1 °F 19.2 °F 30.00 in SSW 1.0 mph 7.0 mph 69% 0.00 in
16:59 28.0 °F 19.1 °F 30.00 in SSW 1.0 mph 3.0 mph 69% 0.00 in
17:04 28.1 °F 19.2 °F 30.00 in SSW 2.0 mph 3.0 mph 69% 0.00 in
17:09 27.8 °F 19.0 °F 30.00 in SSW 3.0 mph 5.0 mph 69% 0.00 in
17:14 27.4 °F 18.9 °F 30.00 in SSW 3.0 mph 5.0 mph 70% 0.00 in
17:19 27.0 °F 18.5 °F 30.00 in SSW 1.0 mph 7.0 mph 70% 0.00 in
17:24 26.6 °F 18.5 °F 30.00 in SSW 1.0 mph 7.0 mph 71% 0.00 in
17:29 25.9 °F 17.8 °F 30.01 in Calm   4.0 mph 71% 0.00 in
17:34 25.4 °F 18.0 °F 30.01 in Calm   4.0 mph 73% 0.00 in
17:39 24.9 °F 17.5 °F 30.01 in Calm   3.0 mph 73% 0.00 in
17:44 24.4 °F 17.3 °F 30.02 in SSW 2.0 mph 4.0 mph 74% 0.00 in
17:49 24.2 °F 17.4 °F 30.02 in SSW 1.0 mph 4.0 mph 75% 0.00 in
17:54 24.1 °F 17.6 °F 30.02 in Calm   3.0 mph 76% 0.00 in
17:59 24.5 °F 18.0 °F 30.03 in SSW 1.0 mph 4.0 mph 76% 0.00 in
18:04 24.8 °F 18.3 °F 30.03 in Calm   4.0 mph 76% 0.00 in
18:09 24.7 °F 18.2 °F 30.03 in Calm   3.0 mph 76% 0.00 in
18:14 24.5 °F 18.0 °F 30.03 in Calm   3.0 mph 76% 0.00 in
18:19 24.7 °F 18.5 °F 30.03 in Calm   4.0 mph 77% 0.00 in
18:24 24.9 °F 18.7 °F 30.03 in Calm   4.0 mph 77% 0.00 in
18:29 25.0 °F 18.8 °F 30.03 in SSW 1.0 mph 4.0 mph 77% 0.00 in
18:34 25.0 °F 18.8 °F 30.03 in SSW 1.0 mph 5.0 mph 77% 0.00 in
18:39 25.1 °F 18.9 °F 30.03 in Calm   5.0 mph 77% 0.00 in
18:44 25.1 °F 18.9 °F 30.03 in SSW 1.0 mph 4.0 mph 77% 0.00 in
18:49 24.8 °F 18.3 °F 30.03 in SSW 1.0 mph 4.0 mph 76% 0.00 in
18:54 24.1 °F 17.6 °F 30.03 in Calm   2.0 mph 76% 0.00 in
18:59 23.6 °F 17.5 °F 30.03 in SSW 1.0 mph 5.0 mph 77% 0.00 in
19:04 23.7 °F 17.8 °F 30.03 in SSW 1.0 mph 5.0 mph 78% 0.00 in
19:09 23.9 °F 18.0 °F 30.03 in SSW 2.0 mph 6.0 mph 78% 0.00 in
19:14 23.9 °F 18.0 °F 30.03 in SSW 2.0 mph 6.0 mph 78% 0.00 in
19:19 23.8 °F 17.9 °F 30.03 in SSW 1.0 mph 7.0 mph 78% 0.00 in
19:24 23.6 °F 17.8 °F 30.03 in SSW 2.0 mph 7.0 mph 78% 0.00 in
19:30 23.9 °F 18.3 °F 30.02 in SSW 1.0 mph 5.0 mph 79% 0.00 in
19:39 24.0 °F 18.4 °F 30.02 in South 1.0 mph 6.0 mph 79% 0.00 in
19:44 24.4 °F 19.1 °F 30.02 in South 2.0 mph 7.0 mph 80% 0.00 in
19:49 24.5 °F 18.6 °F 30.03 in Calm   7.0 mph 78% 0.00 in
19:54 24.0 °F 18.1 °F 30.02 in Calm   7.0 mph 78% 0.00 in
19:59 23.5 °F 17.7 °F 30.02 in Calm   3.0 mph 78% 0.00 in
20:04 23.1 °F 17.9 °F 30.01 in Calm   3.0 mph 80% 0.00 in
20:09 23.3 °F 18.3 °F 30.01 in South 3.0 mph 5.0 mph 81% 0.00 in
20:14 24.0 °F 19.0 °F 30.01 in Calm   5.0 mph 81% 0.00 in
20:19 24.3 °F 18.7 °F 30.01 in Calm   5.0 mph 79% 0.00 in
20:24 24.1 °F 18.5 °F 30.02 in Calm   5.0 mph 79% 0.00 in
20:29 23.4 °F 17.6 °F 30.01 in SSW 1.0 mph 3.0 mph 78% 0.00 in
20:34 23.6 °F 18.3 °F 30.01 in SSW 1.0 mph 5.0 mph 80% 0.00 in
20:44 24.3 °F 19.0 °F 30.01 in Calm   6.0 mph 80% 0.00 in
20:49 24.6 °F 19.0 °F 30.01 in SSW 1.0 mph 6.0 mph 79% 0.00 in
20:54 25.3 °F 19.7 °F 30.00 in SSW 2.0 mph 7.0 mph 79% 0.00 in
20:59 26.1 °F 20.2 °F 30.00 in South 3.0 mph 8.0 mph 78% 0.00 in
21:04 26.5 °F 20.3 °F 30.00 in SSW 4.0 mph 8.0 mph 77% 0.00 in
21:09 26.4 °F 20.2 °F 30.00 in SW 3.0 mph 7.0 mph 77% 0.00 in
21:14 25.9 °F 19.7 °F 30.00 in SSW 3.0 mph 7.0 mph 77% 0.00 in
21:19 25.9 °F 20.0 °F 30.00 in SSW 3.0 mph 7.0 mph 78% 0.00 in
21:24 26.1 °F 20.2 °F 30.00 in SSW 3.0 mph 9.0 mph 78% 0.00 in
21:29 26.3 °F 20.4 °F 30.00 in SSW 3.0 mph 9.0 mph 78% 0.00 in
21:34 26.3 °F 20.4 °F 30.01 in SSW 2.0 mph 7.0 mph 78% 0.00 in
21:39 26.2 °F 20.3 °F 30.02 in SW 4.0 mph 7.0 mph 78% 0.00 in
21:44 26.3 °F 20.4 °F 30.01 in SSW 3.0 mph 7.0 mph 78% 0.00 in
21:49 26.4 °F 20.5 °F 30.01 in SSW 4.0 mph 7.0 mph 78% 0.00 in
21:55 26.5 °F 20.6 °F 30.01 in SSW 3.0 mph 7.0 mph 78% 0.00 in
21:59 26.7 °F 20.8 °F 30.01 in SSW 5.0 mph 8.0 mph 78% 0.00 in
22:04 26.9 °F 21.0 °F 30.01 in SSW 4.0 mph 9.0 mph 78% 0.00 in
22:09 27.1 °F 21.2 °F 30.01 in SSW 4.0 mph 9.0 mph 78% 0.00 in
22:14 27.4 °F 21.1 °F 30.01 in SSW 4.0 mph 12.0 mph 77% 0.00 in
22:19 27.4 °F 21.1 °F 30.01 in SSW 3.0 mph 12.0 mph 77% 0.00 in
22:24 27.2 °F 20.9 °F 30.01 in SSW 3.0 mph 9.0 mph 77% 0.00 in
22:30 27.1 °F 20.9 °F 30.01 in SSW 2.0 mph 8.0 mph 77% 0.00 in
22:39 28.0 °F 21.7 °F 30.00 in SSW 5.0 mph 14.0 mph 77% 0.00 in
22:44 28.4 °F 21.8 °F 30.00 in SSW 6.0 mph 14.0 mph 76% 0.00 in
22:49 28.7 °F 21.8 °F 30.00 in SSW 7.0 mph 13.0 mph 75% 0.00 in
22:54 28.8 °F 21.9 °F 30.00 in South 5.0 mph 13.0 mph 75% 0.00 in
22:59 28.9 °F 22.0 °F 30.00 in South 6.0 mph 13.0 mph 75% 0.00 in
23:04 28.9 °F 21.7 °F 30.00 in SSW 4.0 mph 13.0 mph 74% 0.00 in
23:09 28.8 °F 21.6 °F 30.00 in SSW 7.0 mph 13.0 mph 74% 0.00 in
23:14 28.9 °F 21.7 °F 30.00 in SSW 4.0 mph 11.0 mph 74% 0.00 in
23:19 28.9 °F 21.7 °F 30.00 in SSW 6.0 mph 13.0 mph 74% 0.00 in
23:24 28.9 °F 21.7 °F 30.00 in SSW 4.0 mph 13.0 mph 74% 0.00 in
23:29 29.0 °F 21.8 °F 30.00 in SSW 2.0 mph 13.0 mph 74% 0.00 in
23:35 29.1 °F 21.9 °F 30.00 in SSW 5.0 mph 13.0 mph 74% 0.00 in
23:39 29.2 °F 21.9 °F 30.00 in SSW 7.0 mph 14.0 mph 74% 0.00 in
23:44 29.4 °F 22.1 °F 30.00 in SSW 6.0 mph 14.0 mph 74% 0.00 in
23:49 29.3 °F 22.0 °F 30.00 in SSW 5.0 mph 13.0 mph 74% 0.00 in
23:54 29.4 °F 22.1 °F 29.99 in SSW 5.0 mph 13.0 mph 74% 0.00 in
23:59 29.5 °F 22.2 °F 29.99 in South 6.0 mph 13.0 mph 74% 0.00 in
Westford Weather
Compliments of Weather Underground

 
 
Current Radar Loop:

Copyright © WestfordWeather.net 2007-2014. All rights reserved.